Darstellungsparameter: Aktuell verwendete Einstellungen:
Skalierung der Graphiken ... ?
xyx+y,   Skalierungsfaktor:      Skalierung: Modus: x, Faktor: 1
Darstellungszeitraum ... ?
Vom - - bis: - -   Zeitraum: 11.11.2011 - 12.11.2011
Min/Max/Avg-Anzeige ... ?
Zeige MMA aktuell
Zeige MMA Monat
Zeige MMA alles
Zeige --A aktuell
Zeige --A Monat
Zeige --A alles
Keine MMA-Anzeige
MMA:
Average (ber die Originaldaten)
MMA-Basis: 17.04.2019 - 19.05.2019
Quicknavigation für Darstellung... ?
Tage:      1T, 2T, 3T, 5T -1T -2T -3T -5T +1T +2T +3T +5T
Wochen: 1W, 2W, 3W -1W -2W -3W +1W +2W +3W
Monate: 1M, 3M, 6M -1M -3M -6M +1M +3M +6M
Jahre:    1J, 3J, 5J, 10J -1J -3J -5J -10J +1J +3J +5J +10J
Nutze für die Darstellung ... ?
Originaldaten oder Mittelwerte auf ...
Stundenbasis Tagesbasis Wochenbasis
Monatsbasis Jahresbasis      Datenbasis: Original-Daten
Darstellen als:
Statistik (Auto) Statistik J:M      Darstellung:
Zur Graphik,    zurück zur Übersicht aller Sensoren.
 
Tabellarische Datenbersicht: ?
 
Sensor: Nr:Datum:Temp:Abs-Feuchte:Windchill:Wind:
Aussen-T/F 1 11-11-2011 00:00:04 6.6 C 6.34 g/m*3 6.6 C 0 km/h
2 11-11-2011 00:12:04 6.6 C 6.34 g/m*3 6.6 C 0 km/h
3 11-11-2011 00:24:04 6.6 C 6.34 g/m*3 6.6 C 0 km/h
4 11-11-2011 00:36:04 6.7 C 6.38 g/m*3 6.7 C 0 km/h
5 11-11-2011 00:48:04 6.7 C 6.38 g/m*3 6.7 C 0 km/h
6 11-11-2011 01:00:04 6.7 C 6.38 g/m*3 6.7 C 0 km/h
7 11-11-2011 01:12:04 6.7 C 6.38 g/m*3 6.7 C 0 km/h
8 11-11-2011 01:24:04 6.9 C 6.47 g/m*3 6.9 C 0 km/h
9 11-11-2011 01:36:04 7 C 6.35 g/m*3 7 C 0 km/h
10 11-11-2011 01:48:04 7 C 6.35 g/m*3 7 C 0 km/h
11 11-11-2011 02:00:04 7.1 C 6.32 g/m*3 7.1 C 0 km/h
12 11-11-2011 02:12:04 7.2 C 6.2 g/m*3 7.2 C 0 km/h
13 11-11-2011 02:24:04 7.2 C 6.12 g/m*3 7.2 C 0 km/h
14 11-11-2011 02:36:04 7.2 C 6.04 g/m*3 7.2 C 0 km/h
15 11-11-2011 02:48:05 7.1 C 6.08 g/m*3 7.1 C 0 km/h
16 11-11-2011 03:00:05 7.1 C 6.01 g/m*3 7.1 C 0 km/h
17 11-11-2011 03:12:05 7.1 C 6.08 g/m*3 7.1 C 0 km/h
18 11-11-2011 03:24:05 7.1 C 6.08 g/m*3 7.1 C 0 km/h
19 11-11-2011 03:36:05 7.3 C 6.08 g/m*3 7.3 C 0 km/h
20 11-11-2011 03:48:05 7.2 C 6.04 g/m*3 7.2 C 0 km/h
21 11-11-2011 04:00:05 7.1 C 6.08 g/m*3 7.1 C 0 km/h
22 11-11-2011 04:12:05 7 C 6.12 g/m*3 7 C 0 km/h
23 11-11-2011 04:24:05 7.1 C 6.16 g/m*3 7.1 C 0 km/h
24 11-11-2011 04:36:05 7 C 6.12 g/m*3 7 C 0 km/h
25 11-11-2011 04:48:05 7.1 C 6.24 g/m*3 7.1 C 0 km/h
Sensor: Nr:Datum:Temp:Abs-Feuchte:Windchill:Wind:
Aussen-T/F 26 11-11-2011 05:00:05 7.2 C 6.12 g/m*3 7.2 C 0 km/h
27 11-11-2011 05:12:05 7.3 C 6.08 g/m*3 7.3 C 0 km/h
28 11-11-2011 05:24:05 7.3 C 5.93 g/m*3 7.3 C 0 km/h
29 11-11-2011 05:36:05 7.3 C 5.93 g/m*3 7.3 C 0 km/h
30 11-11-2011 05:48:05 7.3 C 5.93 g/m*3 7.3 C 0 km/h
31 11-11-2011 06:00:05 7.2 C 5.97 g/m*3 7.2 C 0 km/h
32 11-11-2011 06:12:05 7.2 C 5.89 g/m*3 7.2 C 0 km/h
33 11-11-2011 06:24:05 7.2 C 5.97 g/m*3 7.2 C 0 km/h
34 11-11-2011 06:36:05 7.2 C 5.89 g/m*3 7.2 C 0 km/h
35 11-11-2011 06:48:05 7.1 C 5.93 g/m*3 7.1 C 0 km/h
36 11-11-2011 07:00:06 7.1 C 5.93 g/m*3 7.1 C 0 km/h
37 11-11-2011 07:12:06 7 C 5.89 g/m*3 7 C 0 km/h
38 11-11-2011 07:24:06 7.1 C 6.01 g/m*3 7.1 C 0 km/h
39 11-11-2011 07:36:06 7.1 C 6.01 g/m*3 7.1 C 0 km/h
40 11-11-2011 07:48:02 7.1 C 6.08 g/m*3 7.1 C 0 km/h
41 11-11-2011 08:00:02 7.2 C 6.12 g/m*3 7.2 C 0 km/h
42 11-11-2011 08:12:01 7.1 C 6.08 g/m*3 7.1 C 0 km/h
43 11-11-2011 08:24:02 7.2 C 6.2 g/m*3 7.2 C 0 km/h
44 11-11-2011 08:36:02 7.3 C 6.24 g/m*3 7.3 C 0 km/h
45 11-11-2011 08:48:02 7.6 C 6.2 g/m*3 7.6 C 0 km/h
46 11-11-2011 09:00:02 7.7 C 6.16 g/m*3 7.7 C 0 km/h
47 11-11-2011 09:12:02 7.7 C 6.24 g/m*3 7.7 C 0 km/h
48 11-11-2011 09:24:02 7.9 C 6.32 g/m*3 7.9 C 0 km/h
49 11-11-2011 09:36:02 8 C 6.2 g/m*3 8 C 0 km/h
50 11-11-2011 09:48:02 8.1 C 6.24 g/m*3 8.1 C 0 km/h
Sensor: Nr:Datum:Temp:Abs-Feuchte:Windchill:Wind:
Aussen-T/F 51 11-11-2011 10:00:02 8.1 C 6.32 g/m*3 8.1 C 0 km/h
52 11-11-2011 10:12:02 8.2 C 6.36 g/m*3 8.2 C 0 km/h
53 11-11-2011 10:24:02 8.5 C 6.4 g/m*3 8.5 C 0 km/h
54 11-11-2011 10:36:02 8.6 C 6.36 g/m*3 8.6 C 0 km/h
55 11-11-2011 10:48:01 8.7 C 6.4 g/m*3 8.7 C 0 km/h
56 11-11-2011 11:00:01 8.8 C 6.27 g/m*3 8.8 C 0 km/h
57 11-11-2011 11:12:01 9 C 6.26 g/m*3 9 C 0 km/h
58 11-11-2011 11:24:01 9.1 C 6.12 g/m*3 9.1 C 0 km/h
59 11-11-2011 11:36:01 9.2 C 6.07 g/m*3 9.2 C 0 km/h
60 11-11-2011 11:48:02 9.3 C 5.93 g/m*3 9.3 C 0 km/h
61 11-11-2011 12:00:02 9.2 C 5.89 g/m*3 9.2 C 0 km/h
62 11-11-2011 12:12:02 9.2 C 5.8 g/m*3 9.2 C 0 km/h
63 11-11-2011 12:24:02 9.5 C 5.92 g/m*3 9.5 C 0 km/h
64 11-11-2011 12:36:02 9.6 C 5.77 g/m*3 9.6 C 0 km/h
65 11-11-2011 12:48:02 9.7 C 5.81 g/m*3 9.7 C 0 km/h
66 11-11-2011 13:00:02 10 C 5.73 g/m*3 10 C 0 km/h
67 11-11-2011 13:12:01 10.1 C 5.48 g/m*3 10.1 C 0 km/h
68 11-11-2011 13:24:02 10.3 C 5.36 g/m*3 10.3 C 0 km/h
69 11-11-2011 13:36:01 10.4 C 5.4 g/m*3 10.4 C 0 km/h
70 11-11-2011 13:48:01 9.9 C 5.14 g/m*3 9.9 C 0 km/h
71 11-11-2011 14:00:02 10.3 C 5.17 g/m*3 10.3 C 0 km/h
72 11-11-2011 14:12:01 9.8 C 5.01 g/m*3 9.8 C 0 km/h
73 11-11-2011 14:24:01 9.2 C 4.82 g/m*3 9.2 C 0 km/h
74 11-11-2011 14:36:02 8.7 C 4.84 g/m*3 8.7 C 0 km/h
75 11-11-2011 14:48:02 8.9 C 4.99 g/m*3 8.9 C 0 km/h
Sensor: Nr:Datum:Temp:Abs-Feuchte:Windchill:Wind:
Aussen-T/F 76 11-11-2011 15:00:02 8.6 C 5.16 g/m*3 8.6 C 0 km/h
77 11-11-2011 15:12:02 8.2 C 5.19 g/m*3 8.2 C 0 km/h
78 11-11-2011 15:24:01 8.1 C 5.24 g/m*3 8.1 C 0 km/h
79 11-11-2011 15:36:02 8 C 4.96 g/m*3 8 C 0 km/h
80 11-11-2011 15:48:02 7.5 C 5.04 g/m*3 7.5 C 0 km/h
81 11-11-2011 16:00:02 6.7 C 5.09 g/m*3 6.7 C 0 km/h
82 11-11-2011 16:12:02 6.4 C 5.14 g/m*3 6.4 C 0 km/h
83 11-11-2011 16:24:01 5.6 C 5.09 g/m*3 5.6 C 0 km/h
84 11-11-2011 16:36:02 5.1 C 4.99 g/m*3 5.1 C 0 km/h
85 11-11-2011 16:48:01 5 C 5.03 g/m*3 5 C 0 km/h
86 11-11-2011 17:00:01 4.3 C 4.93 g/m*3 4.3 C 0 km/h
87 11-11-2011 17:12:02 3.8 C 4.96 g/m*3 3.8 C 0 km/h
88 11-11-2011 17:24:02 3.6 C 4.95 g/m*3 3.6 C 0 km/h
89 11-11-2011 17:36:02 3.2 C 4.88 g/m*3 3.2 C 0 km/h
90 11-11-2011 17:48:02 3.2 C 4.94 g/m*3 3.2 C 0 km/h
91 11-11-2011 18:00:02 2.9 C 4.84 g/m*3 2.9 C 0 km/h
92 11-11-2011 18:12:02 3 C 4.88 g/m*3 3 C 0 km/h
93 11-11-2011 18:24:02 2.6 C 4.8 g/m*3 2.6 C 0 km/h
94 11-11-2011 18:36:01 2.9 C 4.9 g/m*3 2.9 C 0 km/h
95 11-11-2011 18:48:02 2.4 C 4.74 g/m*3 2.4 C 0 km/h
96 11-11-2011 19:00:02 2.7 C 4.89 g/m*3 2.7 C 0 km/h
97 11-11-2011 19:12:01 3 C 4.93 g/m*3 3 C 0 km/h
98 11-11-2011 19:24:01 2.8 C 4.93 g/m*3 2.8 C 0 km/h
99 11-11-2011 19:36:02 3.1 C 5.03 g/m*3 3.1 C 0 km/h
100 11-11-2011 19:48:02 3.1 C 5.03 g/m*3 3.1 C 0 km/h
Sensor: Nr:Datum:Temp:Abs-Feuchte:Windchill:Wind:
Aussen-T/F 101 11-11-2011 20:00:02 3.2 C 5 g/m*3 3.2 C 0 km/h
102 11-11-2011 20:12:02 3.2 C 5 g/m*3 3.2 C 0 km/h
103 11-11-2011 20:24:02 3 C 4.88 g/m*3 3 C 0 km/h
104 11-11-2011 20:36:02 2.8 C 4.87 g/m*3 2.8 C 0 km/h
105 11-11-2011 20:48:02 2.5 C 4.77 g/m*3 2.5 C 0 km/h
106 11-11-2011 21:00:02 2.5 C 4.83 g/m*3 2.5 C 0 km/h
107 11-11-2011 21:12:02 2.2 C 4.73 g/m*3 2.2 C 0 km/h
108 11-11-2011 21:24:02 2.2 C 4.79 g/m*3 2.2 C 0 km/h
109 11-11-2011 21:36:02 1.9 C 4.75 g/m*3 1.9 C 0 km/h
110 11-11-2011 21:48:02 2 C 4.78 g/m*3 2 C 0 km/h
111 11-11-2011 22:00:02 1.8 C 4.77 g/m*3 1.8 C 0 km/h
112 11-11-2011 22:12:03 1.6 C 4.7 g/m*3 1.6 C 0 km/h
113 11-11-2011 22:24:02 2 C 4.83 g/m*3 2 C 0 km/h
114 11-11-2011 22:36:02 2.2 C 4.9 g/m*3 2.2 C 0 km/h
115 11-11-2011 22:48:01 1.9 C 4.8 g/m*3 1.9 C 0 km/h
116 11-11-2011 23:00:01 2.1 C 4.87 g/m*3 2.1 C 0 km/h
117 11-11-2011 23:12:02 2.2 C 4.9 g/m*3 2.2 C 0 km/h
118 11-11-2011 23:24:01 1.8 C 4.77 g/m*3 1.8 C 0 km/h
119 11-11-2011 23:36:01 1.9 C 4.8 g/m*3 1.9 C 0 km/h
120 11-11-2011 23:48:01 1.5 C 4.62 g/m*3 1.5 C 0 km/h
121 12-11-2011 00:00:01 1.9 C 4.8 g/m*3 1.9 C 0 km/h
122 12-11-2011 00:12:01 1.3 C 4.61 g/m*3 1.3 C 0 km/h
123 12-11-2011 00:24:01 1.7 C 4.79 g/m*3 1.7 C 0 km/h
124 12-11-2011 00:36:02 2.3 C 4.99 g/m*3 2.3 C 0 km/h
125 12-11-2011 00:48:02 2.3 C 4.99 g/m*3 2.3 C 0 km/h
Sensor: Nr:Datum:Temp:Abs-Feuchte:Windchill:Wind:
Aussen-T/F 126 12-11-2011 01:00:02 2.2 C 4.96 g/m*3 2.2 C 0 km/h
127 12-11-2011 01:12:02 2.2 C 4.96 g/m*3 2.2 C 0 km/h
128 12-11-2011 01:24:01 1.7 C 4.79 g/m*3 1.7 C 0 km/h
129 12-11-2011 01:36:02 1.5 C 4.73 g/m*3 1.5 C 0 km/h
130 12-11-2011 01:48:02 1 C 4.57 g/m*3 1 C 0 km/h
131 12-11-2011 02:00:02 1.1 C 4.6 g/m*3 1.1 C 0 km/h
132 12-11-2011 02:12:02 1.1 C 4.6 g/m*3 1.1 C 0 km/h
133 12-11-2011 02:24:01 0.7 C 4.53 g/m*3 0.7 C 0 km/h
134 12-11-2011 02:36:02 0.5 C 4.46 g/m*3 0.5 C 0 km/h
135 12-11-2011 02:48:01 0.5 C 4.46 g/m*3 0.5 C 0 km/h
136 12-11-2011 03:00:01 0.6 C 4.54 g/m*3 0.6 C 0 km/h
137 12-11-2011 03:12:01 0.1 C 4.39 g/m*3 0.1 C 0 km/h
138 12-11-2011 03:24:01 0.1 C 4.39 g/m*3 0.1 C 0 km/h
139 12-11-2011 03:36:01 -0.3 C 4.27 g/m*3 -0.3 C 0 km/h
140 12-11-2011 03:48:01 -0.4 C 4.24 g/m*3 -0.4 C 0 km/h
141 12-11-2011 04:00:01 -0.4 C 4.24 g/m*3 -0.4 C 0 km/h
142 12-11-2011 04:12:01 -0.6 C 4.18 g/m*3 -0.6 C 0 km/h
143 12-11-2011 04:24:01 -0.5 C 4.21 g/m*3 -0.5 C 0 km/h
144 12-11-2011 04:36:01 -0.8 C 4.13 g/m*3 -0.8 C 0 km/h
145 12-11-2011 04:48:01 -0.7 C 4.15 g/m*3 -0.7 C 0 km/h
146 12-11-2011 05:00:01 -0.7 C 4.15 g/m*3 -0.7 C 0 km/h
147 12-11-2011 05:12:01 -0.8 C 4.17 g/m*3 -0.8 C 0 km/h
148 12-11-2011 05:24:02 -1 C 4.11 g/m*3 -1 C 0 km/h
149 12-11-2011 05:36:01 -0.9 C 4.14 g/m*3 -0.9 C 0 km/h
150 12-11-2011 05:48:02 -1.1 C 4.04 g/m*3 -1.1 C 0 km/h
Sensor: Nr:Datum:Temp:Abs-Feuchte:Windchill:Wind:
Aussen-T/F 151 12-11-2011 06:00:02 -1.2 C 4.01 g/m*3 -1.2 C 0 km/h
152 12-11-2011 06:12:01 -1.1 C 4.09 g/m*3 -1.1 C 0 km/h
153 12-11-2011 06:24:01 -1.1 C 4.09 g/m*3 -1.1 C 0 km/h
154 12-11-2011 06:36:02 -1.2 C 4.06 g/m*3 -1.2 C 0 km/h
155 12-11-2011 06:48:01 -1.3 C 4.03 g/m*3 -1.3 C 0 km/h
156 12-11-2011 07:00:01 -1.4 C 4 g/m*3 -1.4 C 0 km/h
157 12-11-2011 07:12:01 -1.2 C 4.06 g/m*3 -1.2 C 0 km/h
158 12-11-2011 07:24:01 -1.2 C 4.06 g/m*3 -1.2 C 0 km/h
159 12-11-2011 07:36:02 -1.4 C 4 g/m*3 -1.4 C 0 km/h
160 12-11-2011 07:48:01 -1.6 C 3.94 g/m*3 -1.6 C 0 km/h
161 12-11-2011 08:00:01 -1.6 C 3.94 g/m*3 -1.6 C 0 km/h
162 12-11-2011 08:12:02 -1.3 C 4.03 g/m*3 -1.3 C 0 km/h
163 12-11-2011 08:24:01 -1.3 C 4.03 g/m*3 -1.3 C 0 km/h
164 12-11-2011 08:36:01 -0.7 C 4.2 g/m*3 -0.7 C 0 km/h
165 12-11-2011 08:48:01 -0.4 C 4.34 g/m*3 -0.4 C 0 km/h
166 12-11-2011 09:00:01 0.1 C 4.49 g/m*3 0.1 C 0 km/h
167 12-11-2011 09:12:01 0.4 C 4.58 g/m*3 0.4 C 0 km/h
168 12-11-2011 09:24:01 0.6 C 4.65 g/m*3 0.6 C 0 km/h
169 12-11-2011 09:36:01 0.6 C 4.65 g/m*3 0.6 C 0 km/h
170 12-11-2011 09:48:02 0.8 C 4.76 g/m*3 0.8 C 0 km/h
171 12-11-2011 10:00:02 1.1 C 4.81 g/m*3 1.1 C 0 km/h
172 12-11-2011 10:12:01 1.8 C 5.04 g/m*3 1.8 C 0 km/h
173 12-11-2011 10:24:02 2.5 C 5.29 g/m*3 2.5 C 0 km/h
174 12-11-2011 10:36:01 3.3 C 5.58 g/m*3 3.3 C 0 km/h
175 12-11-2011 10:48:02 3.6 C 5.69 g/m*3 3.6 C 0 km/h
Sensor: Nr:Datum:Temp:Abs-Feuchte:Windchill:Wind:
Aussen-T/F 176 12-11-2011 11:00:02 4.3 C 5.9 g/m*3 4.3 C 0 km/h
177 12-11-2011 11:12:01 4.6 C 5.96 g/m*3 4.6 C 0 km/h
178 12-11-2011 11:24:01 5.2 C 6.13 g/m*3 5.2 C 0 km/h
179 12-11-2011 11:36:02 6 C 6.39 g/m*3 6 C 0 km/h
180 12-11-2011 11:48:01 6.3 C 6.29 g/m*3 6.3 C 0 km/h
181 12-11-2011 12:00:01 7.5 C 6.4 g/m*3 7.5 C 0 km/h
182 12-11-2011 12:12:02 8.2 C 6.28 g/m*3 8.2 C 0 km/h
183 12-11-2011 12:24:01 8.7 C 6.31 g/m*3 8.7 C 0 km/h
184 12-11-2011 12:36:02 8.8 C 6.01 g/m*3 8.8 C 0 km/h
185 12-11-2011 12:48:01 9 C 5.99 g/m*3 9 C 0 km/h
186 12-11-2011 13:00:01 9.1 C 5.77 g/m*3 9.1 C 0 km/h
187 12-11-2011 13:12:02 9.3 C 5.75 g/m*3 9.3 C 0 km/h
188 12-11-2011 13:24:01 9.7 C 5.81 g/m*3 9.7 C 0 km/h
189 12-11-2011 13:36:01 9.6 C 5.68 g/m*3 9.6 C 0 km/h
190 12-11-2011 13:48:01 9.6 C 5.68 g/m*3 9.6 C 0 km/h
191 12-11-2011 14:00:01 9.4 C 5.7 g/m*3 9.4 C 0 km/h
192 12-11-2011 14:12:01 9.2 C 5.71 g/m*3 9.2 C 0 km/h
193 12-11-2011 14:24:02 9.3 C 5.84 g/m*3 9.3 C 0 km/h
194 12-11-2011 14:36:01 9.2 C 5.8 g/m*3 9.2 C 0 km/h
195 12-11-2011 14:48:02 9.3 C 5.93 g/m*3 9.3 C 0 km/h
196 12-11-2011 15:00:02 9.3 C 5.93 g/m*3 9.3 C 0 km/h
197 12-11-2011 15:12:01 9.5 C 5.92 g/m*3 9.5 C 0 km/h
198 12-11-2011 15:24:02 9.3 C 5.84 g/m*3 9.3 C 0 km/h
199 12-11-2011 15:36:01 9.2 C 5.89 g/m*3 9.2 C 0 km/h
200 12-11-2011 15:48:01 8.9 C 5.96 g/m*3 8.9 C 0 km/h
Sensor: Nr:Datum:Temp:Abs-Feuchte:Windchill:Wind:
Aussen-T/F 201 12-11-2011 16:00:02 8.7 C 5.97 g/m*3 8.7 C 0 km/h
202 12-11-2011 16:12:01 8.5 C 5.98 g/m*3 8.5 C 0 km/h
203 12-11-2011 16:24:01 8.4 C 6.02 g/m*3 8.4 C 0 km/h
204 12-11-2011 16:36:02 8.2 C 6.03 g/m*3 8.2 C 0 km/h
205 12-11-2011 16:48:01 8 C 6.04 g/m*3 8 C 0 km/h
206 12-11-2011 17:00:01 7.9 C 6.08 g/m*3 7.9 C 0 km/h
207 12-11-2011 17:12:02 7.8 C 6.04 g/m*3 7.8 C 0 km/h
208 12-11-2011 17:24:01 7.6 C 5.96 g/m*3 7.6 C 0 km/h
209 12-11-2011 17:36:01 7.6 C 6.04 g/m*3 7.6 C 0 km/h
210 12-11-2011 17:48:01 7.5 C 6 g/m*3 7.5 C 0 km/h
211 12-11-2011 18:00:01 7.4 C 5.96 g/m*3 7.4 C 0 km/h
212 12-11-2011 18:12:01 7.3 C 6 g/m*3 7.3 C 0 km/h
213 12-11-2011 18:24:01 7.3 C 6 g/m*3 7.3 C 0 km/h
214 12-11-2011 18:36:01 7.2 C 5.97 g/m*3 7.2 C 0 km/h
215 12-11-2011 18:48:01 7.2 C 6.04 g/m*3 7.2 C 0 km/h
216 12-11-2011 19:00:01 7.1 C 6.01 g/m*3 7.1 C 0 km/h
217 12-11-2011 19:12:01 7.1 C 6.01 g/m*3 7.1 C 0 km/h
218 12-11-2011 19:24:02 7 C 5.97 g/m*3 7 C 0 km/h
219 12-11-2011 19:36:01 6.9 C 6.08 g/m*3 6.9 C 0 km/h
220 12-11-2011 19:48:02 6.9 C 6.08 g/m*3 6.9 C 0 km/h
221 12-11-2011 20:00:02 6.8 C 6.04 g/m*3 6.8 C 0 km/h
222 12-11-2011 20:12:01 6.8 C 6.12 g/m*3 6.8 C 0 km/h
223 12-11-2011 20:24:01 6.8 C 6.12 g/m*3 6.8 C 0 km/h
224 12-11-2011 20:36:01 6.7 C 6.15 g/m*3 6.7 C 0 km/h
225 12-11-2011 20:48:01 6.7 C 6.15 g/m*3 6.7 C 0 km/h
Sensor: Nr:Datum:Temp:Abs-Feuchte:Windchill:Wind:
Aussen-T/F 226 12-11-2011 21:00:02 6.7 C 6.23 g/m*3 6.7 C 0 km/h
227 12-11-2011 21:12:01 6.7 C 6.23 g/m*3 6.7 C 0 km/h
228 12-11-2011 21:24:01 6.8 C 6.27 g/m*3 6.8 C 0 km/h
229 12-11-2011 21:36:02 6.7 C 6.23 g/m*3 6.7 C 0 km/h
230 12-11-2011 21:48:01 6.7 C 6.31 g/m*3 6.7 C 0 km/h
231 12-11-2011 22:00:01 6.7 C 6.31 g/m*3 6.7 C 0 km/h
232 12-11-2011 22:12:02 6.7 C 6.38 g/m*3 6.7 C 0 km/h
233 12-11-2011 22:24:01 6.6 C 6.34 g/m*3 6.6 C 0 km/h
234 12-11-2011 22:36:01 6.6 C 6.34 g/m*3 6.6 C 0 km/h
235 12-11-2011 22:48:01 6.5 C 6.3 g/m*3 6.5 C 0 km/h
236 12-11-2011 23:00:01 6.4 C 6.33 g/m*3 6.4 C 0 km/h
237 12-11-2011 23:12:02 6.5 C 6.37 g/m*3 6.5 C 0 km/h
238 12-11-2011 23:24:01 6.4 C 6.41 g/m*3 6.4 C 0 km/h
239 12-11-2011 23:36:01 6.4 C 6.41 g/m*3 6.4 C 0 km/h
240 12-11-2011 23:48:01 6.4 C 6.48 g/m*3 6.4 C 0 km/h

Legende:
   Min
   Max


Maximal/Minimal-Werte vom 17.04.2019 - 19.05.2019

Sensor Min Max Avg
Temp
(Aussen-T/F)
2.2 °C
13-05-2019  06:50:00
26.6 °C
24-04-2019  17:05:00
11.51 °C

Die Daten stammen von einer Davis Vantage Pro 2 Wetter-Station und werden unter Linux mit der Software wview2wettercgi und aufbereitet. Alle Angaben erfolgen ohne Gewähr für ihre Vollständigkeit oder Richtigkeit.
Kontakt: Rainer Krienke krienke@uni-koblenz.de . Meine Webseiten an der Uni Koblenz oder privat.
Version: $Revision: 0.78 $